Time;durP1;ratioP1;P1;durP2;ratioP2;P2;SDS_P1;SDS_P2;PMS_P1;PMS_P2;Temp;Humidity;BMP_temperature;BMP_pressure;BME280_temperature;BME280_humidity;BME280_pressure;Samples;Min_cycle;Max_cycle;Signal;HPM_P1;HPM_P2
2022/10/02 00:00:50;;;;;;;;;;;17.40;62.20;;;;;;5088467;28;19920;-66
2022/10/02 00:03:23;;;;;;;;;;;17.40;62.10;;;;;;5088236;28;19947;-66
2022/10/02 00:05:57;;;;;;;;;;;17.40;62.10;;;;;;5088591;28;19924;-66
2022/10/02 00:08:28;;;;;;;;;;;17.40;62.10;;;;;;5088194;28;19920;-67
2022/10/02 00:11:00;;;;;;;;;;;17.40;62.10;;;;;;5089584;28;19931;-67
2022/10/02 00:16:25;;;;;;;;;;;17.40;62.20;;;;;;5090016;28;19912;-66
2022/10/02 00:18:52;;;;;;;;;;;17.40;62.10;;;;;;5088568;28;19920;-66
2022/10/02 00:21:38;;;;;;;;;;;17.30;62.00;;;;;;5088916;28;20379;-66
2022/10/02 00:24:05;;;;;;;;;;;17.40;62.10;;;;;;5105267;28;20383;-66
2022/10/02 00:26:51;;;;;;;;;;;17.40;62.10;;;;;;5088761;28;19943;-66
2022/10/02 00:29:26;;;;;;;;;;;17.30;62.10;;;;;;5105187;28;19921;-67
2022/10/02 00:31:57;;;;;;;;;;;17.30;62.10;;;;;;5088639;28;19924;-67
2022/10/02 00:34:43;;;;;;;;;;;17.40;62.20;;;;;;5088460;28;19982;-66
2022/10/02 00:40:16;;;;;;;;;;;17.30;62.10;;;;;;5089901;28;19912;-66
2022/10/02 00:48:27;;;;;;;;;;;17.30;62.10;;;;;;5089978;28;19912;-66
2022/10/02 00:51:13;;;;;;;;;;;17.30;62.10;;;;;;5089696;28;19921;-66
2022/10/02 00:53:45;;;;;;;;;;;17.30;62.10;;;;;;5105197;28;19927;-66
2022/10/02 00:56:24;;;;;;;;;;;17.30;62.10;;;;;;5088358;28;19920;-67
2022/10/02 00:59:10;;;;;;;;;;;17.30;62.10;;;;;;5089866;28;19995;-66
2022/10/02 01:01:40;;;;;;;;;;;17.30;62.10;;;;;;5089505;28;20358;-66
2022/10/02 01:04:09;;;;;;;;;;;17.40;62.20;;;;;;5088323;28;20011;-66
2022/10/02 01:06:35;;;;;;;;;;;17.30;62.10;;;;;;5088180;28;20003;-66
2022/10/02 01:09:01;;;;;;;;;;;17.30;62.10;;;;;;5088271;28;19956;-66
2022/10/02 01:11:29;;;;;;;;;;;17.30;62.10;;;;;;5089494;28;19920;-66
2022/10/02 01:13:55;;;;;;;;;;;17.30;62.10;;;;;;5088191;28;19920;-66
2022/10/02 01:16:20;;;;;;;;;;;17.30;62.10;;;;;;5088413;28;19928;-66
2022/10/02 01:18:46;;;;;;;;;;;17.30;62.10;;;;;;5089361;28;20296;-66
2022/10/02 01:21:20;;;;;;;;;;;17.30;62.10;;;;;;5088272;28;19935;-66
2022/10/02 01:26:25;;;;;;;;;;;17.30;62.10;;;;;;5110303;27;19913;-66
2022/10/02 01:28:51;;;;;;;;;;;17.20;62.10;;;;;;5108999;28;20431;-66
2022/10/02 01:31:16;;;;;;;;;;;17.30;62.10;;;;;;5110165;28;19920;-66
2022/10/02 01:33:43;;;;;;;;;;;17.30;62.20;;;;;;5108921;28;20372;-67
2022/10/02 01:36:09;;;;;;;;;;;17.30;62.10;;;;;;5109073;28;19927;-66
2022/10/02 01:38:35;;;;;;;;;;;17.30;62.10;;;;;;5109139;28;19920;-66
2022/10/02 01:41:01;;;;;;;;;;;17.30;62.20;;;;;;5108950;28;19928;-66
2022/10/02 01:43:30;;;;;;;;;;;17.30;62.20;;;;;;5109999;28;20368;-66
2022/10/02 01:46:00;;;;;;;;;;;17.30;62.30;;;;;;5108622;28;20018;-66
2022/10/02 01:57:01;;;;;;;;;;;17.30;62.10;;;;;;5089923;28;19912;-66
2022/10/02 01:59:35;;;;;;;;;;;17.20;62.00;;;;;;5105423;28;20402;-66
2022/10/02 02:04:48;;;;;;;;;;;17.20;62.10;;;;;;5110366;27;19934;-66
2022/10/02 02:15:35;;;;;;;;;;;17.20;62.10;;;;;;5110266;27;19912;-66
2022/10/02 02:18:05;;;;;;;;;;;17.20;62.10;;;;;;5110418;28;20291;-66
2022/10/02 02:20:33;;;;;;;;;;;17.20;62.10;;;;;;5109245;28;20264;-66
2022/10/02 02:23:04;;;;;;;;;;;17.20;62.10;;;;;;5108854;28;19931;-66
2022/10/02 02:25:31;;;;;;;;;;;17.20;62.10;;;;;;5108874;28;19950;-66
2022/10/02 02:27:59;;;;;;;;;;;17.20;62.10;;;;;;5109048;28;19920;-67
2022/10/02 02:30:24;;;;;;;;;;;17.20;62.10;;;;;;5108617;28;19926;-66
2022/10/02 02:32:53;;;;;;;;;;;17.20;62.10;;;;;;5110061;28;19920;-66
2022/10/02 02:35:23;;;;;;;;;;;17.20;62.10;;;;;;5108982;28;19924;-66
2022/10/02 02:37:51;;;;;;;;;;;17.20;62.00;;;;;;5109862;28;19928;-66
2022/10/02 02:40:21;;;;;;;;;;;17.20;62.00;;;;;;5109842;28;20388;-66
2022/10/02 02:42:50;;;;;;;;;;;17.20;62.10;;;;;;5109697;28;20364;-66
2022/10/02 02:45:21;;;;;;;;;;;17.20;62.10;;;;;;5110018;28;19920;-66
2022/10/02 02:47:52;;;;;;;;;;;17.20;62.10;;;;;;5109851;28;19920;-66
2022/10/02 02:50:21;;;;;;;;;;;17.20;62.10;;;;;;5108418;28;20380;-67
2022/10/02 02:52:51;;;;;;;;;;;17.20;62.10;;;;;;5108563;28;19926;-66
2022/10/02 02:55:19;;;;;;;;;;;17.20;62.10;;;;;;5109344;28;19965;-66
2022/10/02 02:57:55;;;;;;;;;;;17.20;62.10;;;;;;5108437;28;20361;-66
2022/10/02 03:00:21;;;;;;;;;;;17.20;62.10;;;;;;5109138;28;20318;-67
2022/10/02 03:02:49;;;;;;;;;;;17.20;62.10;;;;;;5091388;28;19920;-68
2022/10/02 03:05:16;;;;;;;;;;;17.20;62.10;;;;;;5107753;28;20437;-69
2022/10/02 03:07:46;;;;;;;;;;;17.20;62.10;;;;;;5142485;27;19919;-68
2022/10/02 03:10:15;;;;;;;;;;;17.20;62.10;;;;;;5107899;28;19920;-69
2022/10/02 03:15:25;;;;;;;;;;;17.20;62.10;;;;;;5150058;27;19918;-68
2022/10/02 03:20:38;;;;;;;;;;;17.20;62.10;;;;;;5089902;28;19913;-66
2022/10/02 03:23:15;;;;;;;;;;;17.20;62.10;;;;;;5088923;28;19920;-66
2022/10/02 03:25:58;;;;;;;;;;;17.20;62.10;;;;;;5088554;28;19920;-66
2022/10/02 03:28:29;;;;;;;;;;;17.10;62.10;;;;;;5089871;28;19939;-66
2022/10/02 03:30:56;;;;;;;;;;;17.20;62.10;;;;;;5088588;28;20057;-66
2022/10/02 03:33:23;;;;;;;;;;;17.20;62.00;;;;;;5088704;28;19943;-66
2022/10/02 03:35:49;;;;;;;;;;;17.10;62.10;;;;;;5088348;28;19946;-66
2022/10/02 03:38:15;;;;;;;;;;;17.20;62.10;;;;;;5088257;28;19963;-66
2022/10/02 03:40:40;;;;;;;;;;;17.20;62.10;;;;;;5088493;28;19956;-66
2022/10/02 03:43:06;;;;;;;;;;;17.10;62.00;;;;;;5088289;28;19920;-66
2022/10/02 03:45:32;;;;;;;;;;;17.10;62.10;;;;;;5088465;28;19921;-66
2022/10/02 03:47:57;;;;;;;;;;;17.10;62.10;;;;;;5088447;28;20291;-66
2022/10/02 03:50:23;;;;;;;;;;;17.10;62.00;;;;;;5088075;28;20402;-66
2022/10/02 03:52:50;;;;;;;;;;;17.10;62.00;;;;;;5088095;28;19920;-66
2022/10/02 03:55:20;;;;;;;;;;;17.10;62.00;;;;;;5088180;28;19972;-66
2022/10/02 03:57:45;;;;;;;;;;;17.10;62.00;;;;;;5089243;28;20015;-66
2022/10/02 04:00:12;;;;;;;;;;;17.10;62.10;;;;;;5087828;28;20065;-66
2022/10/02 04:02:40;;;;;;;;;;;17.10;62.10;;;;;;5087846;28;19921;-66
2022/10/02 04:07:49;;;;;;;;;;;17.10;62.10;;;;;;5089992;28;19912;-66
2022/10/02 04:10:22;;;;;;;;;;;17.10;62.00;;;;;;5071800;28;19926;-66
2022/10/02 04:12:50;;;;;;;;;;;17.10;62.00;;;;;;5088599;28;20003;-66
2022/10/02 04:15:19;;;;;;;;;;;17.10;62.00;;;;;;5088817;28;20328;-66
2022/10/02 04:20:30;;;;;;;;;;;17.10;62.00;;;;;;5089958;28;19913;-66
2022/10/02 04:23:00;;;;;;;;;;;17.10;62.00;;;;;;5088892;28;19921;-66
2022/10/02 04:25:28;;;;;;;;;;;17.10;62.00;;;;;;5088628;28;19921;-66
2022/10/02 04:27:57;;;;;;;;;;;17.10;62.00;;;;;;5088434;28;19934;-66
2022/10/02 04:30:23;;;;;;;;;;;17.10;62.00;;;;;;5088457;28;19921;-66
2022/10/02 04:32:49;;;;;;;;;;;17.10;62.00;;;;;;5088664;28;19924;-66
2022/10/02 04:35:16;;;;;;;;;;;17.10;62.00;;;;;;5088416;28;19927;-66
2022/10/02 04:40:51;;;;;;;;;;;17.00;61.90;;;;;;5110233;27;19913;-66
2022/10/02 04:43:23;;;;;;;;;;;17.00;61.90;;;;;;5109266;28;19965;-66
2022/10/02 04:45:57;;;;;;;;;;;17.00;62.00;;;;;;5109131;28;20011;-66
2022/10/02 04:56:36;;;;;;;;;;;17.00;62.00;;;;;;5089917;28;19919;-66
2022/10/02 05:02:02;;;;;;;;;;;17.00;62.00;;;;;;5089975;28;19913;-66
2022/10/02 05:07:35;;;;;;;;;;;17.00;62.00;;;;;;5110347;27;19919;-66
2022/10/02 05:10:09;;;;;;;;;;;17.00;62.00;;;;;;5108744;28;19947;-66
2022/10/02 05:21:10;;;;;;;;;;;17.00;61.90;;;;;;5110188;27;19912;-66
2022/10/02 05:34:49;;;;;;;;;;;16.90;61.90;;;;;;5110341;27;20294;-66
2022/10/02 05:40:02;;;;;;;;;;;17.00;62.00;;;;;;5089966;28;20375;-66
2022/10/02 05:42:31;;;;;;;;;;;17.00;61.90;;;;;;5088646;28;19920;-66
2022/10/02 05:45:02;;;;;;;;;;;16.90;62.00;;;;;;5088904;28;19974;-66
2022/10/02 05:47:30;;;;;;;;;;;16.90;61.90;;;;;;5088598;28;19959;-66
2022/10/02 05:52:45;;;;;;;;;;;16.90;62.00;;;;;;5090005;28;19919;-66
2022/10/02 05:55:15;;;;;;;;;;;17.00;62.00;;;;;;5088460;28;19927;-66
2022/10/02 05:57:43;;;;;;;;;;;16.90;61.90;;;;;;5088944;28;20371;-66
2022/10/02 06:00:19;;;;;;;;;;;16.90;61.90;;;;;;5088539;28;19920;-66
2022/10/02 06:02:50;;;;;;;;;;;16.90;62.00;;;;;;5088800;28;19924;-66
2022/10/02 06:05:19;;;;;;;;;;;16.90;61.90;;;;;;5088699;28;20409;-66
2022/10/02 06:07:47;;;;;;;;;;;16.90;61.90;;;;;;5088765;28;20384;-66
2022/10/02 06:10:16;;;;;;;;;;;16.90;61.90;;;;;;5088286;28;19920;-66
2022/10/02 06:12:46;;;;;;;;;;;16.90;62.00;;;;;;5089608;28;19974;-66
2022/10/02 06:15:31;;;;;;;;;;;16.90;62.00;;;;;;5089481;28;19931;-66
2022/10/02 06:18:00;;;;;;;;;;;16.90;62.00;;;;;;5088399;28;19920;-66
2022/10/02 06:23:24;;;;;;;;;;;16.90;62.00;;;;;;5089934;28;19918;-66
2022/10/02 06:28:36;;;;;;;;;;;16.90;61.90;;;;;;5089967;28;19919;-66
2022/10/02 06:31:21;;;;;;;;;;;16.90;62.00;;;;;;5088850;28;20330;-66
2022/10/02 06:33:50;;;;;;;;;;;16.90;62.00;;;;;;5105332;28;19924;-66
2022/10/02 06:42:00;;;;;;;;;;;17.00;62.00;;;;;;5089895;28;19913;-66
2022/10/02 06:50:07;;;;;;;;;;;16.90;62.00;;;;;;5110392;27;19940;-66
2022/10/02 06:52:52;;;;;;;;;;;16.90;62.00;;;;;;5108783;28;19920;-66
2022/10/02 06:55:39;;;;;;;;;;;16.90;62.00;;;;;;5108887;28;19920;-66
2022/10/02 06:58:13;;;;;;;;;;;16.90;62.00;;;;;;5108939;28;19945;-66
2022/10/02 07:00:45;;;;;;;;;;;16.90;62.00;;;;;;5108854;28;19969;-66
2022/10/02 07:03:25;;;;;;;;;;;16.90;62.00;;;;;;5143326;27;19919;-66
2022/10/02 07:14:19;;;;;;;;;;;16.90;61.90;;;;;;5110349;27;19912;-66
2022/10/02 07:16:54;;;;;;;;;;;17.00;62.00;;;;;;5108962;28;20322;-66
2022/10/02 07:19:39;;;;;;;;;;;16.90;62.00;;;;;;5109222;28;20028;-66
2022/10/02 07:22:25;;;;;;;;;;;16.90;61.90;;;;;;5108873;28;19959;-66
2022/10/02 07:27:54;;;;;;;;;;;16.90;62.00;;;;;;5089858;28;19941;-66
2022/10/02 07:30:20;;;;;;;;;;;16.90;62.00;;;;;;5088876;28;20450;-66
2022/10/02 07:32:47;;;;;;;;;;;16.90;62.00;;;;;;5088514;28;20016;-66
2022/10/02 07:40:51;;;;;;;;;;;16.90;62.00;;;;;;5128167;27;1848241;-66
2022/10/02 07:46:17;;;;;;;;;;;17.00;62.00;;;;;;5090052;28;20260;-66
2022/10/02 07:49:02;;;;;;;;;;;17.00;62.00;;;;;;5105370;28;19920;-66
2022/10/02 07:51:52;;;;;;;;;;;17.00;62.00;;;;;;5089686;28;19920;-66
2022/10/02 07:54:38;;;;;;;;;;;17.00;62.00;;;;;;5088816;28;19921;-66
2022/10/02 07:57:18;;;;;;;;;;;17.00;62.00;;;;;;5088265;28;20375;-66
2022/10/02 07:59:45;;;;;;;;;;;17.00;62.00;;;;;;5088674;28;19924;-66
2022/10/02 08:02:17;;;;;;;;;;;17.00;62.00;;;;;;5089654;28;19921;-66
2022/10/02 08:04:43;;;;;;;;;;;17.00;62.00;;;;;;5088139;28;20426;-66
2022/10/02 08:07:10;;;;;;;;;;;17.00;62.00;;;;;;5089589;28;19931;-66
2022/10/02 08:09:38;;;;;;;;;;;17.00;62.00;;;;;;5089557;28;20321;-66
2022/10/02 08:12:08;;;;;;;;;;;17.00;61.90;;;;;;5089533;28;20265;-66
2022/10/02 08:14:41;;;;;;;;;;;17.00;62.00;;;;;;5088108;28;19946;-66
2022/10/02 08:17:19;;;;;;;;;;;17.00;62.00;;;;;;5088454;28;20344;-66
2022/10/02 08:19:46;;;;;;;;;;;17.00;62.10;;;;;;5087985;28;19927;-66
2022/10/02 08:22:22;;;;;;;;;;;17.00;62.10;;;;;;5089282;28;20375;-66
2022/10/02 08:24:52;;;;;;;;;;;17.00;62.00;;;;;;5089175;28;19931;-66
2022/10/02 08:27:19;;;;;;;;;;;17.00;62.10;;;;;;5089105;28;19921;-66
2022/10/02 08:29:51;;;;;;;;;;;17.00;62.00;;;;;;5104827;28;19924;-66
2022/10/02 08:32:17;;;;;;;;;;;17.00;61.90;;;;;;5087717;28;20372;-66
2022/10/02 08:34:43;;;;;;;;;;;17.00;61.90;;;;;;5087741;28;19930;-66
2022/10/02 08:37:14;;;;;;;;;;;17.00;61.90;;;;;;5089108;28;19929;-66
2022/10/02 08:45:35;;;;;;;;;;;17.00;61.90;;;;;;5128139;27;1848819;-65
2022/10/02 08:48:22;;;;;;;;;;;17.00;61.90;;;;;;5174349;27;20001;-66
2022/10/02 08:51:06;;;;;;;;;;;17.00;61.90;;;;;;5174181;27;20014;-65
2022/10/02 08:53:43;;;;;;;;;;;17.00;61.90;;;;;;5174381;27;19925;-66
2022/10/02 08:56:29;;;;;;;;;;;17.00;61.90;;;;;;5192952;27;20293;-65
2022/10/02 09:04:38;;;;;;;;;;;17.00;61.80;;;;;;5089971;28;19919;-66
2022/10/02 09:07:24;;;;;;;;;;;17.10;61.90;;;;;;5088736;28;19920;-66
2022/10/02 09:10:02;;;;;;;;;;;17.10;61.90;;;;;;5088385;28;19920;-66
2022/10/02 09:12:40;;;;;;;;;;;17.00;61.90;;;;;;5088468;28;19927;-66
2022/10/02 09:17:47;;;;;;;;;;;17.00;61.80;;;;;;5128052;27;1848751;-66
2022/10/02 09:23:07;;;;;;;;;;;17.10;61.80;;;;;;5110271;27;19912;-66
2022/10/02 09:25:36;;;;;;;;;;;17.10;61.80;;;;;;5109025;28;20425;-66
2022/10/02 09:28:21;;;;;;;;;;;17.10;61.70;;;;;;5110260;28;19920;-66
2022/10/02 09:31:07;;;;;;;;;;;17.10;61.80;;;;;;5108874;28;19920;-66
2022/10/02 09:33:46;;;;;;;;;;;17.10;61.70;;;;;;5108748;28;19926;-66
2022/10/02 09:36:31;;;;;;;;;;;17.20;61.70;;;;;;5108799;28;19920;-66
2022/10/02 09:39:16;;;;;;;;;;;17.10;61.60;;;;;;5143153;27;19923;-66
2022/10/02 09:41:53;;;;;;;;;;;17.20;61.70;;;;;;5142550;27;19931;-66
2022/10/02 09:44:33;;;;;;;;;;;17.20;62.40;;;;;;5109989;28;19974;-66
2022/10/02 09:47:13;;;;;;;;;;;17.20;61.50;;;;;;5108522;28;19923;-66
2022/10/02 09:49:53;;;;;;;;;;;17.20;61.50;;;;;;5091870;28;19924;-66
2022/10/02 09:52:38;;;;;;;;;;;17.20;61.50;;;;;;5108445;28;19927;-66
2022/10/02 09:55:24;;;;;;;;;;;17.20;61.50;;;;;;5108551;28;19970;-66
2022/10/02 10:00:57;;;;;;;;;;;17.20;61.40;;;;;;5089674;28;19916;-68
2022/10/02 10:11:55;;;;;;;;;;;17.20;61.30;;;;;;5110427;27;19912;-66
2022/10/02 10:14:40;;;;;;;;;;;17.20;61.30;;;;;;5108750;28;20367;-66
2022/10/02 10:22:57;;;;;;;;;;;17.20;61.20;;;;;;5110291;27;19912;-66
2022/10/02 10:28:24;;;;;;;;;;;17.30;61.20;;;;;;5089927;28;19923;-66
2022/10/02 10:31:09;;;;;;;;;;;17.30;61.10;;;;;;5088287;28;19921;-66
2022/10/02 10:44:51;;;;;;;;;;;17.40;61.00;;;;;;5089908;28;19912;-65
2022/10/02 10:47:21;;;;;;;;;;;17.40;60.90;;;;;;5089962;28;19927;-66
2022/10/02 10:55:11;;;;;;;;;;;17.40;60.80;;;;;;5089984;28;19913;-66
2022/10/02 10:57:56;;;;;;;;;;;17.40;60.80;;;;;;5088918;28;19927;-67
2022/10/02 11:03:22;;;;;;;;;;;17.40;60.80;;;;;;5089996;28;19919;-66
2022/10/02 11:08:42;;;;;;;;;;;17.50;60.90;;;;;;5090006;28;20311;-66
2022/10/02 11:11:17;;;;;;;;;;;17.50;60.90;;;;;;5088505;28;20011;-66
2022/10/02 11:14:04;;;;;;;;;;;17.40;60.80;;;;;;5090107;28;20279;-66
2022/10/02 11:16:44;;;;;;;;;;;17.40;61.60;;;;;;5088613;28;19966;-66
2022/10/02 11:19:18;;;;;;;;;;;17.40;60.80;;;;;;5088550;28;19964;-65
2022/10/02 11:22:05;;;;;;;;;;;17.40;60.80;;;;;;5088388;28;19939;-66
2022/10/02 11:27:33;;;;;;;;;;;17.40;60.80;;;;;;5090074;28;19919;-66
2022/10/02 11:35:47;;;;;;;;;;;17.40;60.80;;;;;;5110410;27;19912;-66
2022/10/02 11:38:21;;;;;;;;;;;17.40;60.70;;;;;;5108888;28;19927;-65
2022/10/02 11:41:07;;;;;;;;;;;17.40;60.70;;;;;;5108902;28;20407;-66
2022/10/02 11:46:35;;;;;;;;;;;17.40;60.70;;;;;;5110316;27;19916;-67
2022/10/02 11:49:25;;;;;;;;;;;17.40;60.60;;;;;;5110066;28;19970;-66
2022/10/02 11:52:10;;;;;;;;;;;17.40;60.70;;;;;;5109060;28;19979;-66
2022/10/02 11:54:48;;;;;;;;;;;17.50;60.70;;;;;;5108641;28;19985;-66
2022/10/02 11:57:20;;;;;;;;;;;17.40;60.70;;;;;;5110077;28;20013;-66
2022/10/02 11:59:56;;;;;;;;;;;17.40;60.60;;;;;;5109107;28;19920;-66
2022/10/02 12:02:25;;;;;;;;;;;17.40;60.60;;;;;;5109015;28;19920;-66
2022/10/02 12:10:27;;;;;;;;;;;17.50;60.70;;;;;;5090065;28;19912;-66
2022/10/02 12:13:14;;;;;;;;;;;17.40;60.60;;;;;;5088618;28;19924;-66
2022/10/02 12:27:21;;;;;;;;;;;17.40;60.60;;;;;;5088499;28;19920;-66
2022/10/02 12:29:53;;;;;;;;;;;17.40;60.50;;;;;;5088561;28;19966;-66
2022/10/02 12:32:28;;;;;;;;;;;17.50;60.60;;;;;;5088647;28;20426;-66
2022/10/02 12:35:16;;;;;;;;;;;17.50;60.60;;;;;;5088404;28;19920;-66
2022/10/02 12:40:32;;;;;;;;;;;17.50;60.50;;;;;;5089933;28;19912;-66
2022/10/02 12:45:51;;;;;;;;;;;17.50;60.50;;;;;;5089900;28;20287;-66
2022/10/02 12:48:25;;;;;;;;;;;17.50;60.40;;;;;;5090081;28;20284;-66
2022/10/02 12:51:07;;;;;;;;;;;17.50;60.50;;;;;;5088883;28;20007;-66
2022/10/02 12:53:52;;;;;;;;;;;17.50;60.40;;;;;;5088827;28;19920;-66
2022/10/02 12:56:33;;;;;;;;;;;17.40;60.30;;;;;;5088440;28;20035;-66
2022/10/02 12:59:04;;;;;;;;;;;17.50;60.40;;;;;;5089876;28;20307;-66
2022/10/02 13:01:50;;;;;;;;;;;17.50;60.40;;;;;;5088783;28;19920;-66
2022/10/02 13:07:15;;;;;;;;;;;17.50;60.40;;;;;;5128093;27;1854505;-66
2022/10/02 13:10:01;;;;;;;;;;;17.40;60.30;;;;;;5174359;27;19944;-66
2022/10/02 13:12:49;;;;;;;;;;;17.50;60.30;;;;;;5174139;27;20002;-67
2022/10/02 13:15:36;;;;;;;;;;;17.50;60.30;;;;;;5174612;27;19919;-67
2022/10/02 13:18:21;;;;;;;;;;;17.50;60.30;;;;;;5174639;27;19925;-68
2022/10/02 13:23:48;;;;;;;;;;;17.50;60.20;;;;;;5089814;28;19912;-66
2022/10/02 13:31:41;;;;;;;;;;;17.50;60.10;;;;;;5089971;28;19912;-66
2022/10/02 13:34:26;;;;;;;;;;;17.50;60.10;;;;;;5090195;28;19981;-66
2022/10/02 13:42:37;;;;;;;;;;;17.50;60.10;;;;;;5089960;28;19917;-66
2022/10/02 13:47:55;;;;;;;;;;;17.50;60.10;;;;;;5090052;28;19938;-66
2022/10/02 13:50:28;;;;;;;;;;;17.50;60.10;;;;;;5088896;28;19966;-66
2022/10/02 13:55:41;;;;;;;;;;;17.50;60.10;;;;;;5089795;28;19913;-69
2022/10/02 14:03:39;;;;;;;;;;;17.40;60.00;;;;;;5129575;27;1864180;-66
2022/10/02 14:06:11;;;;;;;;;;;17.50;60.00;;;;;;5174838;27;19922;-66
2022/10/02 14:14:07;;;;;;;;;;;17.50;60.00;;;;;;5089925;28;19918;-66
2022/10/02 14:16:40;;;;;;;;;;;17.50;60.00;;;;;;5088575;28;19959;-66
2022/10/02 14:22:08;;;;;;;;;;;17.50;60.00;;;;;;5110245;27;20380;-66
2022/10/02 14:27:22;;;;;;;;;;;17.50;60.00;;;;;;5089883;28;20376;-66
2022/10/02 14:38:08;;;;;;;;;;;17.50;60.00;;;;;;5089942;28;19912;-67
2022/10/02 14:40:39;;;;;;;;;;;17.60;60.00;;;;;;5088810;28;19924;-66
2022/10/02 14:43:12;;;;;;;;;;;17.50;59.90;;;;;;5088476;28;20337;-66
2022/10/02 14:51:11;;;;;;;;;;;17.60;59.90;;;;;;5089961;28;19912;-66
2022/10/02 14:53:57;;;;;;;;;;;17.60;59.90;;;;;;5089815;28;20283;-66
2022/10/02 14:56:43;;;;;;;;;;;17.60;60.00;;;;;;5088307;28;19920;-66
2022/10/02 15:01:54;;;;;;;;;;;17.50;59.80;;;;;;5089918;28;20371;-66
2022/10/02 15:04:27;;;;;;;;;;;17.50;59.80;;;;;;5088568;28;19920;-66
2022/10/02 15:12:17;;;;;;;;;;;17.60;59.90;;;;;;5127833;27;1856366;-66
2022/10/02 15:14:51;;;;;;;;;;;17.60;59.80;;;;;;5174376;27;19919;-66
2022/10/02 15:17:59;;;;;;;;;;;17.60;59.80;;;;;;5174772;27;19922;-66
2022/10/02 15:20:20;;;;;;;;;;;17.60;59.90;;;;;;5174489;27;19944;-66
2022/10/02 15:22:53;;;;;;;;;;;17.60;59.80;;;;;;5174634;27;19958;-66
2022/10/02 15:25:29;;;;;;;;;;;17.60;59.80;;;;;;5174320;27;19919;-66
2022/10/02 15:28:04;;;;;;;;;;;17.60;59.80;;;;;;5174156;27;19919;-66
2022/10/02 15:30:34;;;;;;;;;;;17.60;59.80;;;;;;5174027;27;19930;-66
2022/10/02 15:33:08;;;;;;;;;;;17.60;59.80;;;;;;5192912;27;19919;-66
2022/10/02 15:46:57;;;;;;;;;;;17.60;59.80;;;;;;5090016;28;19913;-66
2022/10/02 15:49:42;;;;;;;;;;;17.60;59.80;;;;;;5088392;28;20032;-66
2022/10/02 15:54:54;;;;;;;;;;;17.60;59.80;;;;;;5110220;27;19912;-66
2022/10/02 15:57:25;;;;;;;;;;;17.60;59.70;;;;;;5109197;28;20015;-66
2022/10/02 16:00:11;;;;;;;;;;;17.60;59.80;;;;;;5108934;28;19920;-66
2022/10/02 16:11:21;;;;;;;;;;;17.60;59.70;;;;;;5090017;28;19912;-66
2022/10/02 16:16:50;;;;;;;;;;;17.60;59.80;;;;;;5089994;28;19917;-66
2022/10/02 16:19:24;;;;;;;;;;;17.60;59.80;;;;;;5105589;28;20019;-66
2022/10/02 16:32:37;;;;;;;;;;;17.70;59.90;;;;;;5110269;27;19912;-66
2022/10/02 16:35:24;;;;;;;;;;;17.60;59.90;;;;;;5108984;28;20489;-66
2022/10/02 16:37:59;;;;;;;;;;;17.60;59.90;;;;;;5109130;28;19927;-66
2022/10/02 16:40:29;;;;;;;;;;;17.60;59.90;;;;;;5108800;28;19924;-66
2022/10/02 16:43:14;;;;;;;;;;;17.60;60.00;;;;;;5109077;28;19931;-66
2022/10/02 16:45:59;;;;;;;;;;;17.60;60.60;;;;;;5142728;27;20498;-66
2022/10/02 16:48:33;;;;;;;;;;;17.60;60.00;;;;;;5143299;27;19924;-66
2022/10/02 16:51:19;;;;;;;;;;;17.60;60.00;;;;;;5108574;28;19942;-66
2022/10/02 16:56:43;;;;;;;;;;;17.60;60.00;;;;;;5089804;28;20295;-68
2022/10/02 16:59:12;;;;;;;;;;;17.50;60.00;;;;;;5090075;28;19966;-70
2022/10/02 17:04:23;;;;;;;;;;;17.50;60.10;;;;;;5128147;27;1852091;-67
2022/10/02 17:06:53;;;;;;;;;;;17.50;60.10;;;;;;5174701;27;19922;-66
2022/10/02 17:09:24;;;;;;;;;;;17.50;60.20;;;;;;5174560;27;19961;-66
2022/10/02 17:11:53;;;;;;;;;;;17.50;60.20;;;;;;5174311;27;19967;-67
2022/10/02 17:14:38;;;;;;;;;;;17.50;60.30;;;;;;5174552;27;19971;-67
2022/10/02 17:17:10;;;;;;;;;;;17.50;60.30;;;;;;5174241;27;19922;-67
2022/10/02 17:19:56;;;;;;;;;;;17.50;60.30;;;;;;5174207;27;19965;-66
2022/10/02 17:25:12;;;;;;;;;;;17.50;60.40;;;;;;5110322;27;19912;-66
2022/10/02 17:27:57;;;;;;;;;;;17.50;60.40;;;;;;5108907;28;19946;-66
2022/10/02 17:30:26;;;;;;;;;;;17.40;60.40;;;;;;5108781;28;20376;-66
2022/10/02 17:35:37;;;;;;;;;;;17.40;60.40;;;;;;5089934;28;19912;-66
2022/10/02 17:46:26;;;;;;;;;;;17.40;60.50;;;;;;5089981;28;19912;-66
2022/10/02 17:48:57;;;;;;;;;;;17.40;60.50;;;;;;5088609;28;19956;-66
2022/10/02 17:51:43;;;;;;;;;;;17.40;60.60;;;;;;5088905;28;20375;-66
2022/10/02 17:57:14;;;;;;;;;;;17.40;60.60;;;;;;5088614;28;19920;-66
2022/10/02 18:00:01;;;;;;;;;;;17.40;60.60;;;;;;5088381;28;19946;-66
2022/10/02 18:02:46;;;;;;;;;;;17.40;60.60;;;;;;5088287;28;19920;-66
2022/10/02 18:13:38;;;;;;;;;;;17.40;60.70;;;;;;5089803;28;19912;-67
2022/10/02 18:16:23;;;;;;;;;;;17.40;60.80;;;;;;5088748;28;20323;-66
2022/10/02 18:21:55;;;;;;;;;;;17.40;60.80;;;;;;5089912;28;19912;-66
2022/10/02 18:24:40;;;;;;;;;;;17.30;60.80;;;;;;5088345;28;20449;-66
2022/10/02 18:27:17;;;;;;;;;;;17.40;60.80;;;;;;5105607;28;19931;-66
2022/10/02 18:38:21;;;;;;;;;;;17.40;60.80;;;;;;5090025;28;20295;-66
2022/10/02 18:41:06;;;;;;;;;;;17.30;60.80;;;;;;5105177;28;19967;-66
2022/10/02 18:46:24;;;;;;;;;;;17.30;60.90;;;;;;5089950;28;19945;-66
2022/10/02 19:00:09;;;;;;;;;;;17.30;61.00;;;;;;5090015;28;19912;-66
2022/10/02 19:02:43;;;;;;;;;;;17.30;61.00;;;;;;5105743;28;19924;-66
2022/10/02 19:05:28;;;;;;;;;;;17.30;61.00;;;;;;5088889;28;19920;-66
2022/10/02 19:13:26;;;;;;;;;;;17.30;61.10;;;;;;5090082;28;19913;-66
2022/10/02 19:15:53;;;;;;;;;;;17.20;61.00;;;;;;5088589;28;19920;-66
2022/10/02 19:21:04;;;;;;;;;;;17.30;61.20;;;;;;5110264;27;19918;-66
2022/10/02 19:26:19;;;;;;;;;;;17.30;61.20;;;;;;5127483;27;1869988;-66
2022/10/02 19:28:47;;;;;;;;;;;17.30;61.20;;;;;;5174426;27;19925;-66
2022/10/02 19:31:18;;;;;;;;;;;17.30;61.20;;;;;;5174544;27;20365;-66
2022/10/02 19:33:48;;;;;;;;;;;17.30;61.30;;;;;;5174357;27;19926;-66
2022/10/02 19:36:18;;;;;;;;;;;17.30;61.30;;;;;;5174659;27;19922;-66
2022/10/02 19:38:48;;;;;;;;;;;17.30;61.30;;;;;;5174303;27;20385;-66
2022/10/02 19:41:13;;;;;;;;;;;17.20;61.20;;;;;;5174188;27;19926;-66
2022/10/02 19:43:47;;;;;;;;;;;17.30;61.30;;;;;;5192907;27;19925;-66
2022/10/02 19:46:14;;;;;;;;;;;17.20;61.30;;;;;;5193101;27;19930;-67
2022/10/02 19:48:39;;;;;;;;;;;17.20;61.30;;;;;;5193060;27;19961;-67
2022/10/02 19:51:06;;;;;;;;;;;17.20;61.30;;;;;;5192809;27;19962;-66
2022/10/02 19:53:36;;;;;;;;;;;17.20;61.30;;;;;;5174360;27;19965;-66
2022/10/02 19:56:05;;;;;;;;;;;17.20;61.40;;;;;;5192565;27;19919;-66
2022/10/02 19:58:34;;;;;;;;;;;17.20;61.40;;;;;;5192894;27;19919;-68
2022/10/02 20:01:00;;;;;;;;;;;17.20;61.40;;;;;;5192645;27;19925;-66
2022/10/02 20:03:26;;;;;;;;;;;17.20;61.40;;;;;;5192714;27;19919;-66
2022/10/02 20:05:56;;;;;;;;;;;17.20;61.40;;;;;;5192634;27;20277;-66
2022/10/02 20:08:26;;;;;;;;;;;17.20;61.40;;;;;;5173994;27;19918;-66
2022/10/02 20:10:56;;;;;;;;;;;17.20;61.50;;;;;;5192390;27;19919;-66
2022/10/02 20:13:33;;;;;;;;;;;17.20;61.50;;;;;;5173573;27;19919;-66
2022/10/02 20:18:53;;;;;;;;;;;17.20;61.50;;;;;;5192143;27;20446;-66
2022/10/02 20:21:24;;;;;;;;;;;17.20;61.50;;;;;;5192182;27;19965;-67
2022/10/02 20:23:52;;;;;;;;;;;17.20;61.50;;;;;;5192300;27;20003;-67
2022/10/02 20:26:21;;;;;;;;;;;17.20;61.60;;;;;;5173191;27;19973;-67
2022/10/02 20:31:46;;;;;;;;;;;17.30;61.70;;;;;;5089846;28;20390;-66
2022/10/02 20:34:20;;;;;;;;;;;17.20;61.60;;;;;;5105348;28;19920;-66
2022/10/02 20:36:51;;;;;;;;;;;17.20;61.60;;;;;;5088962;28;19920;-66
2022/10/02 20:39:20;;;;;;;;;;;17.20;61.60;;;;;;5088495;28;19928;-66
2022/10/02 20:41:53;;;;;;;;;;;17.20;61.70;;;;;;5088832;28;19921;-66
2022/10/02 20:44:18;;;;;;;;;;;17.20;61.70;;;;;;5088306;28;19931;-66
2022/10/02 20:47:00;;;;;;;;;;;17.10;61.60;;;;;;5088728;28;19921;-66
2022/10/02 20:49:46;;;;;;;;;;;17.20;61.70;;;;;;5088172;28;19924;-66
2022/10/02 20:57:49;;;;;;;;;;;17.10;61.70;;;;;;5172354;27;20011;-66
2022/10/02 21:00:16;;;;;;;;;;;17.10;61.70;;;;;;5171259;27;19919;-66
2022/10/02 21:11:19;;;;;;;;;;;17.10;61.70;;;;;;5089991;28;19912;-66
2022/10/02 21:16:40;;;;;;;;;;;17.10;61.80;;;;;;5090031;28;19944;-67
2022/10/02 21:22:07;;;;;;;;;;;17.10;61.90;;;;;;5110274;27;19912;-67
2022/10/02 21:32:40;;;;;;;;;;;17.10;61.80;;;;;;5089845;28;20360;-66
2022/10/02 21:35:26;;;;;;;;;;;17.10;61.90;;;;;;5088541;28;19935;-66
2022/10/02 21:38:00;;;;;;;;;;;17.10;61.90;;;;;;5089655;28;19921;-66
2022/10/02 21:45:58;;;;;;;;;;;17.10;61.90;;;;;;5109748;27;19916;-67
2022/10/02 21:48:45;;;;;;;;;;;17.10;61.90;;;;;;5107291;28;19927;-66
2022/10/02 21:54:14;;;;;;;;;;;17.00;61.90;;;;;;5129213;27;20007;-66